sensor_id;sensor_type;location;lat;lon;timestamp;temperature;humidity
4293;DHT22;2160;51.172;6.808;2023-03-01T05:01:15;3.70;99.90
4293;DHT22;2160;51.172;6.808;2023-03-01T05:03:44;3.70;99.90
4293;DHT22;2160;51.172;6.808;2023-03-01T05:06:11;3.70;99.90
4293;DHT22;2160;51.172;6.808;2023-03-01T05:08:39;3.70;99.90
4293;DHT22;2160;51.172;6.808;2023-03-01T05:11:06;3.70;99.90
4293;DHT22;2160;51.172;6.808;2023-03-01T05:13:35;3.70;99.90
4293;DHT22;2160;51.172;6.808;2023-03-01T05:16:03;3.70;99.90
4293;DHT22;2160;51.172;6.808;2023-03-01T05:18:33;3.70;99.90
4293;DHT22;2160;51.172;6.808;2023-03-01T05:21:04;3.70;99.90
4293;DHT22;2160;51.172;6.808;2023-03-01T05:23:32;3.70;99.90
4293;DHT22;2160;51.172;6.808;2023-03-01T05:26:00;3.90;99.90
4293;DHT22;2160;51.172;6.808;2023-03-01T05:28:27;3.70;99.90
4293;DHT22;2160;51.172;6.808;2023-03-01T05:30:55;3.70;99.90
4293;DHT22;2160;51.172;6.808;2023-03-01T05:33:22;3.60;99.90
4293;DHT22;2160;51.172;6.808;2023-03-01T05:35:51;3.60;99.90
4293;DHT22;2160;51.172;6.808;2023-03-01T05:38:19;3.50;99.90
4293;DHT22;2160;51.172;6.808;2023-03-01T05:40:48;3.50;99.90
4293;DHT22;2160;51.172;6.808;2023-03-01T05:43:16;3.60;99.90
4293;DHT22;2160;51.172;6.808;2023-03-01T05:45:43;3.60;99.90
4293;DHT22;2160;51.172;6.808;2023-03-01T05:48:11;3.60;99.90
4293;DHT22;2160;51.172;6.808;2023-03-01T05:50:40;3.60;99.90
4293;DHT22;2160;51.172;6.808;2023-03-01T05:53:11;3.60;99.90
4293;DHT22;2160;51.172;6.808;2023-03-01T05:55:39;3.60;99.90
4293;DHT22;2160;51.172;6.808;2023-03-01T05:58:10;3.50;99.90
4293;DHT22;2160;51.172;6.808;2023-03-01T06:00:37;3.50;99.90
4293;DHT22;2160;51.172;6.808;2023-03-01T06:03:06;3.50;99.90
4293;DHT22;2160;51.172;6.808;2023-03-01T06:05:33;3.50;99.90
4293;DHT22;2160;51.172;6.808;2023-03-01T06:08:00;3.60;99.90
4293;DHT22;2160;51.172;6.808;2023-03-01T06:10:29;3.60;99.90
4293;DHT22;2160;51.172;6.808;2023-03-01T06:12:57;3.50;99.90
4293;DHT22;2160;51.172;6.808;2023-03-01T06:15:25;3.40;99.90
4293;DHT22;2160;51.172;6.808;2023-03-01T06:17:54;3.60;99.90
4293;DHT22;2160;51.172;6.808;2023-03-01T06:20:25;3.60;99.90
4293;DHT22;2160;51.172;6.808;2023-03-01T06:22:52;3.60;99.90
4293;DHT22;2160;51.172;6.808;2023-03-01T06:25:21;3.60;99.90
4293;DHT22;2160;51.172;6.808;2023-03-01T06:27:50;3.70;99.90
4293;DHT22;2160;51.172;6.808;2023-03-01T06:30:19;3.50;99.90
4293;DHT22;2160;51.172;6.808;2023-03-01T06:32:46;3.40;99.90
4293;DHT22;2160;51.172;6.808;2023-03-01T10:21:15;7.50;74.50
4293;DHT22;2160;51.172;6.808;2023-03-01T10:23:44;7.50;75.70
4293;DHT22;2160;51.172;6.808;2023-03-01T10:26:20;7.50;74.70
4293;DHT22;2160;51.172;6.808;2023-03-01T10:28:55;7.60;74.70
4293;DHT22;2160;51.172;6.808;2023-03-01T10:31:26;7.70;74.20
4293;DHT22;2160;51.172;6.808;2023-03-01T10:33:55;7.80;73.50
4293;DHT22;2160;51.172;6.808;2023-03-01T10:36:24;7.90;75.90
4293;DHT22;2160;51.172;6.808;2023-03-01T10:38:53;7.80;73.10
4293;DHT22;2160;51.172;6.808;2023-03-01T10:41:21;7.90;73.70
4293;DHT22;2160;51.172;6.808;2023-03-01T10:43:51;8.00;72.60
4293;DHT22;2160;51.172;6.808;2023-03-01T10:46:26;8.10;72.60
4293;DHT22;2160;51.172;6.808;2023-03-01T10:51:40;8.20;71.80
4293;DHT22;2160;51.172;6.808;2023-03-01T10:54:16;8.30;73.10
4293;DHT22;2160;51.172;6.808;2023-03-01T10:56:49;8.50;71.70
4293;DHT22;2160;51.172;6.808;2023-03-01T10:59:29;8.30;70.40
4293;DHT22;2160;51.172;6.808;2023-03-01T11:02:15;8.20;75.30
4293;DHT22;2160;51.172;6.808;2023-03-01T11:04:58;8.40;74.30
4293;DHT22;2160;51.172;6.808;2023-03-01T11:07:26;8.50;71.00
4293;DHT22;2160;51.172;6.808;2023-03-01T11:09:53;8.70;71.90
4293;DHT22;2160;51.172;6.808;2023-03-01T11:12:21;8.80;70.70
4293;DHT22;2160;51.172;6.808;2023-03-01T11:14:49;8.80;70.90
4293;DHT22;2160;51.172;6.808;2023-03-01T11:17:21;9.10;69.20
4293;DHT22;2160;51.172;6.808;2023-03-01T11:20:06;9.00;68.40
4293;DHT22;2160;51.172;6.808;2023-03-01T11:22:46;8.90;73.60
4293;DHT22;2160;51.172;6.808;2023-03-01T11:25:14;9.00;69.90
4293;DHT22;2160;51.172;6.808;2023-03-01T11:27:43;8.90;69.50
4293;DHT22;2160;51.172;6.808;2023-03-01T11:30:18;9.10;68.50
4293;DHT22;2160;51.172;6.808;2023-03-01T11:33:00;9.30;69.40
4293;DHT22;2160;51.172;6.808;2023-03-01T11:35:28;9.60;71.00
4293;DHT22;2160;51.172;6.808;2023-03-01T11:38:06;9.60;64.00
4293;DHT22;2160;51.172;6.808;2023-03-01T11:40:41;9.50;71.90
4293;DHT22;2160;51.172;6.808;2023-03-01T11:43:18;9.60;67.70
4293;DHT22;2160;51.172;6.808;2023-03-01T11:45:54;9.60;66.50
4293;DHT22;2160;51.172;6.808;2023-03-01T11:48:38;9.60;66.80
4293;DHT22;2160;51.172;6.808;2023-03-01T11:51:16;9.70;66.20
4293;DHT22;2160;51.172;6.808;2023-03-01T11:54:00;9.60;64.10
4293;DHT22;2160;51.172;6.808;2023-03-01T11:56:32;9.70;64.20
4293;DHT22;2160;51.172;6.808;2023-03-01T11:59:23;9.60;63.20
4293;DHT22;2160;51.172;6.808;2023-03-01T12:04:57;9.70;63.20
4293;DHT22;2160;51.172;6.808;2023-03-01T12:07:36;9.70;65.40
4293;DHT22;2160;51.172;6.808;2023-03-01T12:10:29;9.90;64.80
4293;DHT22;2160;51.172;6.808;2023-03-01T12:13:13;10.10;61.70
4293;DHT22;2160;51.172;6.808;2023-03-01T12:15:56;10.20;61.30
4293;DHT22;2160;51.172;6.808;2023-03-01T12:18:50;10.30;61.70
4293;DHT22;2160;51.172;6.808;2023-03-01T12:21:30;10.20;60.30
4293;DHT22;2160;51.172;6.808;2023-03-01T12:24:15;10.30;62.50
4293;DHT22;2160;51.172;6.808;2023-03-01T12:27:01;10.10;61.00
4293;DHT22;2160;51.172;6.808;2023-03-01T12:29:37;10.30;64.10
4293;DHT22;2160;51.172;6.808;2023-03-01T12:32:30;10.30;62.50
4293;DHT22;2160;51.172;6.808;2023-03-01T12:37:54;10.30;61.00
4293;DHT22;2160;51.172;6.808;2023-03-01T12:40:37;10.40;61.80
4293;DHT22;2160;51.172;6.808;2023-03-01T12:43:19;10.40;61.80
4293;DHT22;2160;51.172;6.808;2023-03-01T12:45:58;10.30;60.30
4293;DHT22;2160;51.172;6.808;2023-03-01T12:52:22;10.20;61.30
4293;DHT22;2160;51.172;6.808;2023-03-01T12:54:52;10.20;58.90
4293;DHT22;2160;51.172;6.808;2023-03-01T12:57:29;10.50;59.00
4293;DHT22;2160;51.172;6.808;2023-03-01T13:00:15;10.50;58.10
4293;DHT22;2160;51.172;6.808;2023-03-01T13:02:48;10.60;58.70
4293;DHT22;2160;51.172;6.808;2023-03-01T13:05:24;10.90;59.80
4293;DHT22;2160;51.172;6.808;2023-03-01T13:08:01;10.90;57.80
4293;DHT22;2160;51.172;6.808;2023-03-01T13:10:41;10.90;57.80
4293;DHT22;2160;51.172;6.808;2023-03-01T13:13:14;11.10;58.20
4293;DHT22;2160;51.172;6.808;2023-03-01T13:15:46;11.10;61.60
4293;DHT22;2160;51.172;6.808;2023-03-01T13:18:31;10.90;58.00
4293;DHT22;2160;51.172;6.808;2023-03-01T13:21:01;10.80;62.80
4293;DHT22;2160;51.172;6.808;2023-03-01T13:23:37;10.90;59.20
4293;DHT22;2160;51.172;6.808;2023-03-01T13:26:15;10.80;58.80
4293;DHT22;2160;51.172;6.808;2023-03-01T13:29:00;11.10;58.90
4293;DHT22;2160;51.172;6.808;2023-03-01T13:31:58;11.30;59.10
4293;DHT22;2160;51.172;6.808;2023-03-01T13:34:41;11.30;57.20
4293;DHT22;2160;51.172;6.808;2023-03-01T13:37:37;11.30;56.90
4293;DHT22;2160;51.172;6.808;2023-03-01T13:43:28;11.20;57.30
4293;DHT22;2160;51.172;6.808;2023-03-01T13:45:55;11.10;57.60
4293;DHT22;2160;51.172;6.808;2023-03-01T13:48:28;11.00;58.90
4293;DHT22;2160;51.172;6.808;2023-03-01T13:50:59;11.10;58.50
4293;DHT22;2160;51.172;6.808;2023-03-01T13:53:30;10.90;58.30
4293;DHT22;2160;51.172;6.808;2023-03-01T13:56:00;11.10;56.60
4293;DHT22;2160;51.172;6.808;2023-03-01T13:58:31;11.20;56.40
4293;DHT22;2160;51.172;6.808;2023-03-01T14:01:01;11.20;57.40
4293;DHT22;2160;51.172;6.808;2023-03-01T14:03:31;11.20;57.70
4293;DHT22;2160;51.172;6.808;2023-03-01T14:06:12;11.10;57.40
4293;DHT22;2160;51.172;6.808;2023-03-01T14:08:39;11.20;56.70
4293;DHT22;2160;51.172;6.808;2023-03-01T14:11:37;11.30;56.50
4293;DHT22;2160;51.172;6.808;2023-03-01T14:14:42;11.40;55.90
4293;DHT22;2160;51.172;6.808;2023-03-01T14:17:24;11.60;56.50
4293;DHT22;2160;51.172;6.808;2023-03-01T14:19:58;11.60;56.80
4293;DHT22;2160;51.172;6.808;2023-03-01T14:22:27;11.50;56.30
4293;DHT22;2160;51.172;6.808;2023-03-01T14:24:57;11.60;57.70
4293;DHT22;2160;51.172;6.808;2023-03-01T14:27:28;11.70;57.60
4293;DHT22;2160;51.172;6.808;2023-03-01T14:29:58;11.60;57.00
4293;DHT22;2160;51.172;6.808;2023-03-01T14:32:27;11.50;56.90
4293;DHT22;2160;51.172;6.808;2023-03-01T14:35:21;11.70;56.20
4293;DHT22;2160;51.172;6.808;2023-03-01T14:37:56;11.40;55.60
4293;DHT22;2160;51.172;6.808;2023-03-01T14:40:40;11.60;56.20
4293;DHT22;2160;51.172;6.808;2023-03-01T14:43:10;11.50;56.30
4293;DHT22;2160;51.172;6.808;2023-03-01T14:45:47;11.80;56.60
4293;DHT22;2160;51.172;6.808;2023-03-01T14:48:21;11.70;56.60
4293;DHT22;2160;51.172;6.808;2023-03-01T14:50:53;11.60;55.40
4293;DHT22;2160;51.172;6.808;2023-03-01T14:53:22;11.50;55.50
4293;DHT22;2160;51.172;6.808;2023-03-01T14:55:52;11.40;56.10
4293;DHT22;2160;51.172;6.808;2023-03-01T14:58:22;11.30;56.40
4293;DHT22;2160;51.172;6.808;2023-03-01T15:00:52;11.30;56.00
4293;DHT22;2160;51.172;6.808;2023-03-01T15:03:26;11.30;55.80
4293;DHT22;2160;51.172;6.808;2023-03-01T15:05:56;11.30;55.30
4293;DHT22;2160;51.172;6.808;2023-03-01T15:08:25;11.20;55.60
4293;DHT22;2160;51.172;6.808;2023-03-01T15:11:04;11.30;55.60
4293;DHT22;2160;51.172;6.808;2023-03-01T15:13:34;11.30;54.40
4293;DHT22;2160;51.172;6.808;2023-03-01T15:16:06;11.20;54.90
4293;DHT22;2160;51.172;6.808;2023-03-01T15:18:35;11.10;54.90
4293;DHT22;2160;51.172;6.808;2023-03-01T15:21:09;11.00;54.60
4293;DHT22;2160;51.172;6.808;2023-03-01T15:23:38;11.00;55.30
4293;DHT22;2160;51.172;6.808;2023-03-01T15:26:24;11.00;54.30
4293;DHT22;2160;51.172;6.808;2023-03-01T15:28:54;11.00;55.60
4293;DHT22;2160;51.172;6.808;2023-03-01T15:31:25;10.90;54.70
4293;DHT22;2160;51.172;6.808;2023-03-01T15:34:08;10.80;54.30
4293;DHT22;2160;51.172;6.808;2023-03-01T15:36:44;10.80;53.90
4293;DHT22;2160;51.172;6.808;2023-03-01T15:39:52;10.80;55.00
4293;DHT22;2160;51.172;6.808;2023-03-01T15:42:40;10.80;56.00
4293;DHT22;2160;51.172;6.808;2023-03-01T15:45:19;10.90;54.80
4293;DHT22;2160;51.172;6.808;2023-03-01T15:47:48;10.80;54.50
4293;DHT22;2160;51.172;6.808;2023-03-01T15:50:19;10.80;54.90
4293;DHT22;2160;51.172;6.808;2023-03-01T15:52:49;10.50;53.70
4293;DHT22;2160;51.172;6.808;2023-03-01T15:55:19;10.50;53.90
4293;DHT22;2160;51.172;6.808;2023-03-01T15:58:05;10.60;53.10
4293;DHT22;2160;51.172;6.808;2023-03-01T16:00:33;10.60;53.80
4293;DHT22;2160;51.172;6.808;2023-03-01T16:03:01;10.30;53.20
4293;DHT22;2160;51.172;6.808;2023-03-01T16:05:31;10.30;53.50
4293;DHT22;2160;51.172;6.808;2023-03-01T16:08:03;10.40;53.90
4293;DHT22;2160;51.172;6.808;2023-03-01T16:10:35;10.20;53.90
4293;DHT22;2160;51.172;6.808;2023-03-01T16:13:02;10.20;54.70
4293;DHT22;2160;51.172;6.808;2023-03-01T16:15:33;10.30;54.30
4293;DHT22;2160;51.172;6.808;2023-03-01T16:18:01;10.40;54.60
4293;DHT22;2160;51.172;6.808;2023-03-01T16:20:29;10.30;53.40
4293;DHT22;2160;51.172;6.808;2023-03-01T16:22:58;10.30;54.20
4293;DHT22;2160;51.172;6.808;2023-03-01T16:25:27;10.30;53.70
4293;DHT22;2160;51.172;6.808;2023-03-01T16:27:54;10.40;54.40
4293;DHT22;2160;51.172;6.808;2023-03-01T16:30:24;10.30;54.00
4293;DHT22;2160;51.172;6.808;2023-03-01T16:32:51;10.40;53.60
4293;DHT22;2160;51.172;6.808;2023-03-01T16:35:19;10.30;53.50
4293;DHT22;2160;51.172;6.808;2023-03-01T16:37:47;10.20;55.40
4293;DHT22;2160;51.172;6.808;2023-03-01T16:40:18;10.20;53.30
4293;DHT22;2160;51.172;6.808;2023-03-01T16:42:47;10.10;53.40
4293;DHT22;2160;51.172;6.808;2023-03-01T16:45:15;10.30;54.20
4293;DHT22;2160;51.172;6.808;2023-03-01T16:47:44;10.10;53.20
4293;DHT22;2160;51.172;6.808;2023-03-01T16:50:12;9.80;53.60
4293;DHT22;2160;51.172;6.808;2023-03-01T16:52:40;9.60;54.40
4293;DHT22;2160;51.172;6.808;2023-03-01T16:55:09;9.80;54.60
4293;DHT22;2160;51.172;6.808;2023-03-01T16:57:38;9.70;54.20
4293;DHT22;2160;51.172;6.808;2023-03-01T17:00:12;9.90;56.10
4293;DHT22;2160;51.172;6.808;2023-03-01T17:02:40;9.90;55.00
4293;DHT22;2160;51.172;6.808;2023-03-01T17:05:11;9.90;54.30
4293;DHT22;2160;51.172;6.808;2023-03-01T17:07:39;9.90;54.10
4293;DHT22;2160;51.172;6.808;2023-03-01T17:10:09;9.80;54.90
4293;DHT22;2160;51.172;6.808;2023-03-01T17:12:37;9.70;54.60
4293;DHT22;2160;51.172;6.808;2023-03-01T17:15:06;9.70;55.00
4293;DHT22;2160;51.172;6.808;2023-03-01T17:17:33;9.60;54.70
4293;DHT22;2160;51.172;6.808;2023-03-01T17:20:01;9.60;55.90
4293;DHT22;2160;51.172;6.808;2023-03-01T17:22:28;9.70;55.90
4293;DHT22;2160;51.172;6.808;2023-03-01T17:24:56;9.70;55.20
4293;DHT22;2160;51.172;6.808;2023-03-01T17:27:23;9.60;55.10
4293;DHT22;2160;51.172;6.808;2023-03-01T17:29:53;9.60;55.20
4293;DHT22;2160;51.172;6.808;2023-03-01T17:32:28;9.70;55.30
4293;DHT22;2160;51.172;6.808;2023-03-01T17:34:56;9.80;55.70
4293;DHT22;2160;51.172;6.808;2023-03-01T17:37:23;9.70;55.30
4293;DHT22;2160;51.172;6.808;2023-03-01T17:39:50;9.80;55.70
4293;DHT22;2160;51.172;6.808;2023-03-01T17:42:17;9.70;56.30
4293;DHT22;2160;51.172;6.808;2023-03-01T17:44:44;9.70;56.40
4293;DHT22;2160;51.172;6.808;2023-03-01T17:47:11;9.50;55.90
4293;DHT22;2160;51.172;6.808;2023-03-01T17:49:39;9.70;56.30
4293;DHT22;2160;51.172;6.808;2023-03-01T17:52:07;9.40;56.20
4293;DHT22;2160;51.172;6.808;2023-03-01T17:54:34;9.40;56.30
4293;DHT22;2160;51.172;6.808;2023-03-01T17:57:04;9.30;56.30
4293;DHT22;2160;51.172;6.808;2023-03-01T17:59:34;9.10;56.50
4293;DHT22;2160;51.172;6.808;2023-03-01T18:02:01;9.10;56.70
4293;DHT22;2160;51.172;6.808;2023-03-01T18:04:28;9.00;57.10
4293;DHT22;2160;51.172;6.808;2023-03-01T18:06:58;8.90;56.90
4293;DHT22;2160;51.172;6.808;2023-03-01T18:09:26;8.90;57.70
4293;DHT22;2160;51.172;6.808;2023-03-01T18:11:53;8.90;57.70
4293;DHT22;2160;51.172;6.808;2023-03-01T18:14:20;8.90;57.30
4293;DHT22;2160;51.172;6.808;2023-03-01T18:16:47;8.80;57.60
4293;DHT22;2160;51.172;6.808;2023-03-01T18:19:14;8.80;57.70
4293;DHT22;2160;51.172;6.808;2023-03-01T18:21:41;8.90;59.10
4293;DHT22;2160;51.172;6.808;2023-03-01T18:24:10;8.90;57.80
4293;DHT22;2160;51.172;6.808;2023-03-01T18:27:30;8.80;57.60
4293;DHT22;2160;51.172;6.808;2023-03-01T18:30:17;8.70;58.10
4293;DHT22;2160;51.172;6.808;2023-03-01T18:32:55;8.70;58.30
4293;DHT22;2160;51.172;6.808;2023-03-01T18:35:28;8.80;58.30
4293;DHT22;2160;51.172;6.808;2023-03-01T18:37:58;8.80;58.70
4293;DHT22;2160;51.172;6.808;2023-03-01T18:40:32;9.00;58.60
4293;DHT22;2160;51.172;6.808;2023-03-01T18:43:04;8.90;58.10
4293;DHT22;2160;51.172;6.808;2023-03-01T18:45:32;8.80;58.10
4293;DHT22;2160;51.172;6.808;2023-03-01T18:48:01;8.70;57.60
4293;DHT22;2160;51.172;6.808;2023-03-01T18:50:29;8.70;58.60
4293;DHT22;2160;51.172;6.808;2023-03-01T18:52:57;8.60;58.30
4293;DHT22;2160;51.172;6.808;2023-03-01T18:55:24;8.60;58.50
4293;DHT22;2160;51.172;6.808;2023-03-01T18:57:53;8.60;58.40
4293;DHT22;2160;51.172;6.808;2023-03-01T19:00:21;8.70;58.60
4293;DHT22;2160;51.172;6.808;2023-03-01T19:02:48;8.70;58.20
4293;DHT22;2160;51.172;6.808;2023-03-01T19:05:15;8.60;58.30
4293;DHT22;2160;51.172;6.808;2023-03-01T19:07:43;8.60;57.90
4293;DHT22;2160;51.172;6.808;2023-03-01T19:10:13;8.50;58.30
4293;DHT22;2160;51.172;6.808;2023-03-01T19:12:49;8.60;58.50
4293;DHT22;2160;51.172;6.808;2023-03-01T19:15:19;8.80;59.10
4293;DHT22;2160;51.172;6.808;2023-03-01T19:17:49;8.50;58.40
4293;DHT22;2160;51.172;6.808;2023-03-01T19:20:18;8.50;57.80
4293;DHT22;2160;51.172;6.808;2023-03-01T19:22:45;8.60;58.70
4293;DHT22;2160;51.172;6.808;2023-03-01T19:25:25;8.70;58.90
4293;DHT22;2160;51.172;6.808;2023-03-01T19:28:12;8.70;58.20
4293;DHT22;2160;51.172;6.808;2023-03-01T19:31:20;8.60;57.90
4293;DHT22;2160;51.172;6.808;2023-03-01T19:34:28;8.60;58.50
4293;DHT22;2160;51.172;6.808;2023-03-01T19:40:14;8.70;58.90
4293;DHT22;2160;51.172;6.808;2023-03-01T19:43:35;8.70;59.50
4293;DHT22;2160;51.172;6.808;2023-03-01T19:46:23;8.70;59.00
4293;DHT22;2160;51.172;6.808;2023-03-01T19:49:10;8.60;58.90
4293;DHT22;2160;51.172;6.808;2023-03-01T19:55:32;8.50;59.10
4293;DHT22;2160;51.172;6.808;2023-03-01T19:58:11;8.50;59.40
4293;DHT22;2160;51.172;6.808;2023-03-01T20:01:16;8.60;59.50
4293;DHT22;2160;51.172;6.808;2023-03-01T20:04:09;8.50;59.10
4293;DHT22;2160;51.172;6.808;2023-03-01T20:06:44;8.40;59.50
4293;DHT22;2160;51.172;6.808;2023-03-01T20:09:44;8.50;59.90
4293;DHT22;2160;51.172;6.808;2023-03-01T20:12:18;8.50;60.30
4293;DHT22;2160;51.172;6.808;2023-03-01T20:14:56;8.50;59.60
4293;DHT22;2160;51.172;6.808;2023-03-01T20:17:52;8.60;59.80
4293;DHT22;2160;51.172;6.808;2023-03-01T20:20:40;8.50;63.10
4293;DHT22;2160;51.172;6.808;2023-03-01T20:23:14;8.50;60.30
4293;DHT22;2160;51.172;6.808;2023-03-01T20:25:51;8.30;60.60
4293;DHT22;2160;51.172;6.808;2023-03-01T20:28:22;8.40;59.90
4293;DHT22;2160;51.172;6.808;2023-03-01T20:33:43;8.40;61.70
4293;DHT22;2160;51.172;6.808;2023-03-01T20:36:32;8.30;61.80
4293;DHT22;2160;51.172;6.808;2023-03-01T20:39:06;8.40;61.60
4293;DHT22;2160;51.172;6.808;2023-03-01T20:41:39;8.30;61.60
4293;DHT22;2160;51.172;6.808;2023-03-01T20:44:07;8.20;63.20
4293;DHT22;2160;51.172;6.808;2023-03-01T20:46:40;8.20;62.80
4293;DHT22;2160;51.172;6.808;2023-03-01T20:49:10;8.10;62.50
4293;DHT22;2160;51.172;6.808;2023-03-01T20:51:41;7.90;63.80
4293;DHT22;2160;51.172;6.808;2023-03-01T20:54:09;8.00;64.70
4293;DHT22;2160;51.172;6.808;2023-03-01T20:56:38;8.00;66.10
4293;DHT22;2160;51.172;6.808;2023-03-01T20:59:10;7.80;66.50
4293;DHT22;2160;51.172;6.808;2023-03-01T21:01:38;7.70;66.40
4293;DHT22;2160;51.172;6.808;2023-03-01T21:04:14;7.70;65.00
4293;DHT22;2160;51.172;6.808;2023-03-01T21:06:43;7.80;66.00
4293;DHT22;2160;51.172;6.808;2023-03-01T21:09:39;7.90;66.30
4293;DHT22;2160;51.172;6.808;2023-03-01T21:12:17;7.80;68.70
4293;DHT22;2160;51.172;6.808;2023-03-01T21:14:47;7.50;69.40
4293;DHT22;2160;51.172;6.808;2023-03-01T21:17:17;7.60;69.20
4293;DHT22;2160;51.172;6.808;2023-03-01T21:19:46;7.30;69.90
4293;DHT22;2160;51.172;6.808;2023-03-01T21:22:19;7.40;71.70
4293;DHT22;2160;51.172;6.808;2023-03-01T21:24:52;7.40;70.10
4293;DHT22;2160;51.172;6.808;2023-03-01T21:28:05;7.50;68.90
4293;DHT22;2160;51.172;6.808;2023-03-01T21:30:46;7.60;68.40
4293;DHT22;2160;51.172;6.808;2023-03-01T21:33:13;7.40;68.70
4293;DHT22;2160;51.172;6.808;2023-03-01T21:35:39;7.60;68.60
4293;DHT22;2160;51.172;6.808;2023-03-01T21:38:08;7.70;68.70
4293;DHT22;2160;51.172;6.808;2023-03-01T21:40:48;7.70;68.60
4293;DHT22;2160;51.172;6.808;2023-03-01T21:43:20;7.60;69.20
4293;DHT22;2160;51.172;6.808;2023-03-01T21:45:47;7.50;69.70
4293;DHT22;2160;51.172;6.808;2023-03-01T21:48:17;7.50;72.10
4293;DHT22;2160;51.172;6.808;2023-03-01T21:50:53;7.70;72.00
4293;DHT22;2160;51.172;6.808;2023-03-01T21:53:22;7.60;70.90
4293;DHT22;2160;51.172;6.808;2023-03-01T21:55:49;7.60;71.00
4293;DHT22;2160;51.172;6.808;2023-03-01T21:58:17;7.70;72.20
4293;DHT22;2160;51.172;6.808;2023-03-01T22:00:47;7.60;72.30
4293;DHT22;2160;51.172;6.808;2023-03-01T22:03:14;7.60;71.40
4293;DHT22;2160;51.172;6.808;2023-03-01T22:05:52;7.60;71.00
4293;DHT22;2160;51.172;6.808;2023-03-01T22:08:27;7.50;70.80
4293;DHT22;2160;51.172;6.808;2023-03-01T22:10:54;7.60;72.50
4293;DHT22;2160;51.172;6.808;2023-03-01T22:13:22;7.50;71.30
4293;DHT22;2160;51.172;6.808;2023-03-01T22:15:52;7.40;73.40
4293;DHT22;2160;51.172;6.808;2023-03-01T22:18:27;7.40;73.50
4293;DHT22;2160;51.172;6.808;2023-03-01T22:21:14;7.30;75.80
4293;DHT22;2160;51.172;6.808;2023-03-01T22:23:45;7.30;77.20
4293;DHT22;2160;51.172;6.808;2023-03-01T22:26:23;7.20;78.20
4293;DHT22;2160;51.172;6.808;2023-03-01T22:28:52;7.20;78.70
4293;DHT22;2160;51.172;6.808;2023-03-01T22:31:24;7.20;79.10
4293;DHT22;2160;51.172;6.808;2023-03-01T22:33:52;7.20;80.00
4293;DHT22;2160;51.172;6.808;2023-03-01T22:36:20;7.10;79.30
4293;DHT22;2160;51.172;6.808;2023-03-01T22:38:48;7.10;80.20
4293;DHT22;2160;51.172;6.808;2023-03-01T22:41:20;7.30;78.50
4293;DHT22;2160;51.172;6.808;2023-03-01T22:43:47;7.20;79.40
4293;DHT22;2160;51.172;6.808;2023-03-01T22:46:16;7.10;81.50
4293;DHT22;2160;51.172;6.808;2023-03-01T22:48:45;7.00;80.60
4293;DHT22;2160;51.172;6.808;2023-03-01T22:51:13;7.00;78.70
4293;DHT22;2160;51.172;6.808;2023-03-01T22:53:41;7.00;77.90
4293;DHT22;2160;51.172;6.808;2023-03-01T22:56:14;7.00;78.10
4293;DHT22;2160;51.172;6.808;2023-03-01T22:58:42;7.10;80.10
4293;DHT22;2160;51.172;6.808;2023-03-01T23:01:11;7.10;79.30
4293;DHT22;2160;51.172;6.808;2023-03-01T23:03:39;6.90;82.70
4293;DHT22;2160;51.172;6.808;2023-03-01T23:06:10;6.80;84.40
4293;DHT22;2160;51.172;6.808;2023-03-01T23:08:37;6.70;84.60
4293;DHT22;2160;51.172;6.808;2023-03-01T23:11:09;6.70;84.70
4293;DHT22;2160;51.172;6.808;2023-03-01T23:13:39;6.70;86.10
4293;DHT22;2160;51.172;6.808;2023-03-01T23:16:10;6.70;86.70
4293;DHT22;2160;51.172;6.808;2023-03-01T23:18:38;6.60;85.40
4293;DHT22;2160;51.172;6.808;2023-03-01T23:21:09;6.70;86.20
4293;DHT22;2160;51.172;6.808;2023-03-01T23:23:37;6.70;86.70
4293;DHT22;2160;51.172;6.808;2023-03-01T23:26:07;6.50;87.40
4293;DHT22;2160;51.172;6.808;2023-03-01T23:28:37;6.80;87.50
4293;DHT22;2160;51.172;6.808;2023-03-01T23:31:09;6.70;88.00
4293;DHT22;2160;51.172;6.808;2023-03-01T23:33:40;6.50;88.40
4293;DHT22;2160;51.172;6.808;2023-03-01T23:36:16;6.60;88.60
4293;DHT22;2160;51.172;6.808;2023-03-01T23:38:54;6.60;87.80
4293;DHT22;2160;51.172;6.808;2023-03-01T23:41:24;6.50;88.20
4293;DHT22;2160;51.172;6.808;2023-03-01T23:43:59;6.40;88.90
4293;DHT22;2160;51.172;6.808;2023-03-01T23:46:36;6.40;90.30
4293;DHT22;2160;51.172;6.808;2023-03-01T23:49:11;6.20;90.00
4293;DHT22;2160;51.172;6.808;2023-03-01T23:51:42;6.40;89.20
4293;DHT22;2160;51.172;6.808;2023-03-01T23:54:26;6.50;88.40
4293;DHT22;2160;51.172;6.808;2023-03-01T23:57:03;6.40;86.40
4293;DHT22;2160;51.172;6.808;2023-03-01T23:59:33;6.50;86.60
